Terminal Aerodrome Forecast
Issued by NWS Blacksburg, VA

Current Version | Previous Version | Graphics & Text | Print | Product List | Glossary On
Versions: 1 2 3 4 5 6 7 8 9 10 11 12 13 14 15 16 17 18 19
000
FTUS41 KRNK 150538 AAA
TAFBLF
TAF AMD
KBLF 150538Z 1506/1606 20004KT P6SM FEW020
     FM151300 22007KT P6SM FEW008
     FM151600 24011KT P6SM FEW035
     FM160200 29009KT P6SM VCSH OVC035=

USA.gov is the U.S. government's official web portal to all federal, state and local government web resources and services.